createdAt,value
2023-01-28T00:01:13.916Z,89.90
2023-01-28T00:03:41.133Z,90.17
2023-01-28T00:06:14.179Z,89.95
2023-01-28T00:08:42.024Z,89.99
2023-01-28T00:11:12.415Z,88.92
2023-01-28T00:13:39.567Z,89.08
2023-01-28T00:16:09.705Z,89.45
2023-01-28T00:18:37.177Z,88.87
2023-01-28T00:21:09.946Z,89.10
2023-01-28T00:23:38.806Z,89.33
2023-01-28T00:26:12.398Z,89.83
2023-01-28T00:28:39.293Z,90.30
2023-01-28T00:31:10.904Z,90.78
2023-01-28T00:33:38.029Z,90.05
2023-01-28T00:36:07.279Z,90.55
2023-01-28T00:38:35.542Z,91.80
2023-01-28T00:41:15.668Z,91.77
2023-01-28T00:43:44.744Z,92.07
2023-01-28T00:46:14.091Z,91.24
2023-01-28T00:48:42.834Z,91.52
2023-01-28T00:51:12.073Z,91.82
2023-01-28T00:53:39.768Z,92.24
2023-01-28T00:56:08.791Z,92.10
2023-01-28T00:58:35.678Z,92.52
2023-01-28T01:01:12.832Z,92.73
2023-01-28T01:03:40.304Z,92.82
2023-01-28T01:06:08.038Z,92.48
2023-01-28T01:08:35.318Z,91.85
2023-01-28T01:11:03.369Z,91.66
2023-01-28T01:13:31.424Z,92.53
2023-01-28T01:16:11.301Z,92.46
2023-01-28T01:18:42.102Z,91.94
2023-01-28T01:21:17.412Z,91.28
2023-01-28T01:23:45.083Z,91.95
2023-01-28T01:26:12.522Z,91.54
2023-01-28T01:28:39.610Z,92.47
2023-01-28T01:31:12.749Z,91.71
2023-01-28T01:33:39.943Z,92.46
2023-01-28T01:36:07.479Z,93.25
2023-01-28T01:38:35.504Z,93.49
2023-01-28T01:41:02.607Z,93.44
2023-01-28T01:43:51.193Z,93.71
2023-01-28T01:46:23.896Z,93.07
2023-01-28T01:48:52.089Z,93.64
2023-01-28T01:51:25.704Z,93.58
2023-01-28T01:53:55.071Z,94.24
2023-01-28T01:56:27.907Z,94.01
2023-01-28T01:58:57.573Z,94.42
2023-01-28T02:01:29.355Z,94.58
2023-01-28T02:04:01.315Z,93.73
2023-01-28T02:06:28.881Z,93.60
2023-01-28T02:08:56.687Z,94.47
2023-01-28T02:11:29.110Z,94.73
2023-01-28T02:14:00.709Z,95.12
2023-01-28T02:16:28.948Z,94.88
2023-01-28T02:18:55.789Z,95.68
2023-01-28T02:21:56.921Z,94.47
2023-01-28T02:24:54.580Z,93.90
2023-01-28T02:27:36.646Z,94.09
2023-01-28T02:30:21.673Z,94.83
2023-01-28T02:33:00.438Z,95.00
2023-01-28T02:36:18.827Z,93.66
2023-01-28T02:38:52.981Z,93.41
2023-01-28T02:41:33.371Z,92.94
2023-01-28T02:44:03.095Z,93.13
2023-01-28T02:46:48.540Z,92.95
2023-01-28T02:49:39.213Z,91.83
2023-01-28T02:52:45.778Z,92.33
2023-01-28T02:55:27.754Z,92.25
2023-01-28T02:58:39.014Z,92.15
2023-01-28T03:01:33.731Z,91.44
2023-01-28T03:04:23.711Z,91.37
2023-01-28T03:06:56.176Z,92.13
2023-01-28T03:09:25.971Z,92.86
2023-01-28T03:12:21.481Z,93.50
2023-01-28T03:15:12.683Z,94.50
2023-01-28T03:18:27.940Z,93.97
2023-01-28T03:21:34.714Z,94.36
2023-01-28T03:24:31.641Z,95.09
2023-01-28T03:27:25.937Z,94.43
2023-01-28T03:30:15.673Z,95.21
2023-01-28T03:33:01.898Z,95.01
2023-01-28T03:35:51.631Z,95.04
2023-01-28T03:38:23.145Z,94.18
2023-01-28T03:41:00.601Z,94.75
2023-01-28T03:43:28.984Z,94.42
2023-01-28T03:45:56.267Z,95.04
2023-01-28T03:48:25.757Z,95.35
2023-01-28T03:50:55.480Z,95.83
2023-01-28T03:53:23.250Z,96.68
2023-01-28T03:55:52.076Z,97.30
2023-01-28T03:58:19.440Z,97.09
2023-01-28T04:00:47.490Z,97.48
2023-01-28T04:03:18.035Z,98.17
2023-01-28T04:05:59.776Z,97.76
2023-01-28T04:08:26.795Z,98.11
2023-01-28T04:10:53.560Z,98.11
2023-01-28T04:13:20.727Z,98.11
2023-01-28T04:15:48.331Z,97.86
2023-01-28T04:18:15.388Z,98.00
2023-01-28T04:20:42.212Z,97.80
2023-01-28T04:23:09.772Z,97.55
2023-01-28T04:25:36.615Z,98.21
2023-01-28T04:28:03.539Z,97.67
2023-01-28T04:30:30.391Z,98.52
2023-01-28T04:32:57.191Z,98.69
2023-01-28T04:35:24.106Z,98.34
2023-01-28T04:37:50.928Z,98.34
2023-01-28T04:40:18.026Z,98.17
2023-01-28T04:42:54.414Z,97.81
2023-01-28T04:45:21.597Z,97.98
2023-01-28T04:47:48.559Z,98.18
2023-01-28T04:50:15.866Z,98.67
2023-01-28T04:52:42.860Z,98.11
2023-01-28T04:55:10.836Z,97.82
2023-01-28T04:57:37.697Z,97.58
2023-01-28T05:00:05.964Z,98.09
2023-01-28T05:02:33.136Z,98.48
2023-01-28T05:05:01.485Z,99.20
2023-01-28T05:07:28.337Z,99.91
2023-01-28T05:09:55.118Z,100.00
2023-01-28T05:12:22.015Z,100.00
2023-01-28T05:14:48.787Z,100.00
2023-01-28T05:17:15.676Z,100.00
2023-01-28T05:19:42.575Z,100.00
2023-01-28T05:22:09.648Z,100.00
2023-01-28T05:24:36.453Z,100.00
2023-01-28T05:27:03.430Z,100.00
2023-01-28T05:29:30.227Z,100.00
2023-01-28T05:31:57.046Z,100.00
2023-01-28T05:34:23.891Z,99.83
2023-01-28T05:36:50.699Z,99.46
2023-01-28T05:39:17.478Z,99.22
2023-01-28T05:41:44.295Z,98.26
2023-01-28T05:44:11.123Z,99.04
2023-01-28T05:46:38.138Z,98.86
2023-01-28T05:49:08.589Z,98.01
2023-01-28T05:51:35.401Z,98.25
2023-01-28T05:54:02.208Z,98.47
2023-01-28T05:56:28.980Z,98.17
2023-01-28T05:58:55.823Z,98.09
2023-01-28T06:01:22.641Z,97.39
2023-01-28T06:03:49.520Z,97.81
2023-01-28T06:06:16.288Z,97.94
2023-01-28T06:08:43.114Z,98.07
2023-01-28T06:11:09.943Z,97.87
2023-01-28T06:13:37.675Z,97.21
2023-01-28T06:16:04.999Z,97.93
2023-01-28T06:18:31.914Z,97.79
2023-01-28T06:20:58.890Z,97.73
2023-01-28T06:23:25.710Z,98.45
2023-01-28T06:25:56.613Z,98.12
2023-01-28T06:28:24.875Z,97.89
2023-01-28T06:30:53.209Z,98.54
2023-01-28T06:33:20.875Z,98.31
2023-01-28T06:35:47.675Z,97.65
2023-01-28T06:38:14.797Z,98.16
2023-01-28T06:40:41.692Z,98.39
2023-01-28T06:43:08.608Z,98.98
2023-01-28T06:45:35.473Z,99.62
2023-01-28T06:48:03.955Z,98.78
2023-01-28T06:50:30.944Z,99.49
2023-01-28T06:52:57.815Z,100.00
2023-01-28T06:55:24.634Z,100.00
2023-01-28T06:57:51.548Z,100.00
2023-01-28T07:00:19.144Z,99.92
2023-01-28T07:02:46.059Z,100.00
2023-01-28T07:05:12.893Z,100.00
2023-01-28T07:07:41.879Z,100.00
2023-01-28T07:10:10.721Z,100.00
2023-01-28T07:12:37.610Z,100.00
2023-01-28T07:15:04.912Z,100.00
2023-01-28T07:17:31.962Z,100.00
2023-01-28T07:19:58.927Z,100.00
2023-01-28T07:22:25.790Z,100.00
2023-01-28T07:24:52.644Z,100.00
2023-01-28T07:27:19.407Z,100.00
2023-01-28T07:29:46.178Z,100.00
2023-01-28T07:32:13.014Z,100.00
2023-01-28T07:34:41.694Z,100.00
2023-01-28T07:37:09.722Z,100.00
2023-01-28T07:39:36.530Z,100.00
2023-01-28T07:42:03.420Z,100.00
2023-01-28T07:44:30.226Z,100.00
2023-01-28T07:46:57.087Z,100.00
2023-01-28T07:49:23.958Z,100.00
2023-01-28T07:51:51.007Z,100.00
2023-01-28T07:54:17.900Z,100.00
2023-01-28T07:56:44.814Z,100.00
2023-01-28T07:59:11.816Z,100.00
2023-01-28T08:01:38.727Z,100.00
2023-01-28T08:04:05.757Z,100.00
2023-01-28T08:06:37.741Z,100.00
2023-01-28T08:09:06.163Z,100.00
2023-01-28T08:11:33.228Z,100.00
2023-01-28T08:14:00.392Z,100.00
2023-01-28T08:16:28.692Z,100.00
2023-01-28T08:18:55.635Z,100.00
2023-01-28T08:21:22.632Z,100.00
2023-01-28T08:23:49.579Z,100.00
2023-01-28T08:26:16.421Z,100.00
2023-01-28T08:28:43.314Z,100.00
2023-01-28T08:31:10.845Z,100.00
2023-01-28T08:33:37.907Z,100.00
2023-01-28T08:36:05.896Z,100.00
2023-01-28T08:38:32.962Z,100.00
2023-01-28T08:40:59.953Z,100.00
2023-01-28T08:43:26.873Z,100.00
2023-01-28T08:45:53.751Z,100.00
2023-01-28T08:48:20.924Z,100.00
2023-01-28T08:50:47.751Z,100.00
2023-01-28T08:53:17.834Z,100.00
2023-01-28T08:55:47.307Z,100.00
2023-01-28T08:58:17.151Z,100.00
2023-01-28T09:00:45.740Z,100.00
2023-01-28T09:03:12.830Z,100.00
2023-01-28T09:05:39.951Z,100.00
2023-01-28T09:08:13.099Z,100.00
2023-01-28T09:10:41.236Z,100.00
2023-01-28T09:13:11.820Z,100.00
2023-01-28T09:15:38.975Z,100.00
2023-01-28T09:18:06.361Z,100.00
2023-01-28T09:20:33.579Z,100.00
2023-01-28T09:23:01.729Z,99.71
2023-01-28T09:25:28.756Z,99.71
2023-01-28T09:27:55.624Z,100.00
2023-01-28T09:30:22.697Z,99.61
2023-01-28T09:32:53.573Z,99.81
2023-01-28T09:35:21.047Z,98.83
2023-01-28T09:37:48.766Z,98.67
2023-01-28T09:40:28.719Z,98.44
2023-01-28T09:42:59.728Z,98.78
2023-01-28T09:45:55.918Z,97.53
2023-01-28T09:48:45.491Z,97.80
2023-01-28T09:51:34.961Z,97.64
2023-01-28T09:54:21.147Z,97.23
2023-01-28T09:56:51.853Z,96.25
2023-01-28T09:59:22.210Z,96.24
2023-01-28T10:02:23.295Z,96.10
2023-01-28T10:05:19.407Z,95.90
2023-01-28T10:08:00.548Z,95.32
2023-01-28T10:10:34.445Z,95.13
2023-01-28T10:13:49.673Z,94.19
2023-01-28T10:16:29.908Z,94.54
2023-01-28T10:19:29.091Z,93.55
2023-01-28T10:22:22.133Z,94.12
2023-01-28T10:25:06.599Z,94.02
2023-01-28T10:27:36.229Z,92.90
2023-01-28T10:30:23.388Z,92.90
2023-01-28T10:32:56.979Z,92.81
2023-01-28T10:35:24.151Z,92.89
2023-01-28T10:37:59.510Z,93.35
2023-01-28T10:40:26.322Z,93.51
2023-01-28T10:42:53.131Z,92.96
2023-01-28T10:45:35.047Z,92.27
2023-01-28T10:48:32.078Z,92.55
2023-01-28T10:51:02.499Z,93.18
2023-01-28T10:53:42.320Z,93.75
2023-01-28T10:56:32.600Z,93.25
2023-01-28T10:59:03.873Z,93.27
2023-01-28T11:01:48.086Z,93.58
2023-01-28T11:04:36.124Z,92.84
2023-01-28T11:07:18.083Z,92.16
2023-01-28T11:09:51.317Z,92.46
2023-01-28T11:12:30.070Z,92.23
2023-01-28T11:15:00.113Z,92.59
2023-01-28T11:17:34.708Z,93.32
2023-01-28T11:20:17.836Z,93.22
2023-01-28T11:22:45.612Z,93.20
2023-01-28T11:25:27.626Z,94.61
2023-01-28T11:27:55.308Z,94.03
2023-01-28T11:30:34.961Z,94.22
2023-01-28T11:33:17.314Z,94.00
2023-01-28T11:35:58.492Z,93.39
2023-01-28T11:38:26.716Z,94.65
2023-01-28T11:40:57.213Z,93.85
2023-01-28T11:43:27.468Z,93.95
2023-01-28T11:46:18.418Z,93.70
2023-01-28T11:49:14.153Z,94.73
2023-01-28T11:52:22.857Z,93.90
2023-01-28T11:55:19.645Z,94.12
2023-01-28T11:58:04.237Z,93.08
2023-01-28T12:01:02.273Z,93.19
2023-01-28T12:04:07.164Z,93.58
2023-01-28T12:06:42.629Z,92.90
2023-01-28T12:09:53.432Z,93.58
2023-01-28T12:12:41.881Z,94.88
2023-01-28T12:15:33.082Z,95.15
2023-01-28T12:18:31.942Z,95.51
2023-01-28T12:21:31.504Z,97.24
2023-01-28T12:24:38.100Z,97.76
2023-01-28T12:27:29.163Z,96.84
2023-01-28T12:30:19.273Z,96.23
2023-01-28T12:33:23.476Z,96.14
2023-01-28T12:36:32.808Z,94.98
2023-01-28T12:39:20.078Z,95.07
2023-01-28T12:42:13.874Z,94.92
2023-01-28T12:45:05.665Z,95.10
2023-01-28T12:47:38.130Z,94.59
2023-01-28T12:50:20.794Z,95.71
2023-01-28T12:52:55.699Z,94.72
2023-01-28T12:55:44.280Z,95.16
2023-01-28T12:58:20.401Z,94.32
2023-01-28T13:00:55.000Z,95.54
2023-01-28T13:03:30.753Z,95.13
2023-01-28T13:06:10.581Z,94.96
2023-01-28T13:08:37.473Z,95.15
2023-01-28T13:11:05.516Z,94.90
2023-01-28T13:13:42.268Z,95.63
2023-01-28T13:16:10.947Z,95.46
2023-01-28T13:18:40.893Z,96.15
2023-01-28T13:21:15.689Z,95.83
2023-01-28T13:23:46.465Z,95.49
2023-01-28T13:26:19.494Z,96.60
2023-01-28T13:28:51.575Z,97.81
2023-01-28T13:31:22.376Z,98.50
2023-01-28T13:34:03.539Z,98.77
2023-01-28T13:36:47.797Z,99.56
2023-01-28T13:39:14.484Z,99.46
2023-01-28T13:41:43.983Z,100.00
2023-01-28T13:44:40.164Z,100.00
2023-01-28T13:47:25.459Z,99.33
2023-01-28T13:50:13.853Z,100.00
2023-01-28T13:53:07.631Z,100.00
2023-01-28T13:55:45.340Z,100.00
2023-01-28T13:58:49.729Z,100.00
2023-01-28T14:01:28.067Z,100.00
2023-01-28T14:04:24.700Z,100.00
2023-01-28T14:07:34.850Z,100.00
2023-01-28T14:10:33.764Z,100.00
2023-01-28T14:14:03.067Z,100.00
2023-01-28T14:17:03.913Z,100.00
2023-01-28T14:19:38.225Z,100.00
2023-01-28T14:22:10.678Z,100.00
2023-01-28T14:24:38.655Z,100.00
2023-01-28T14:27:23.205Z,100.00
2023-01-28T14:30:03.277Z,100.00
2023-01-28T14:32:33.634Z,100.00
2023-01-28T14:35:07.851Z,100.00
2023-01-28T14:37:35.792Z,100.00
2023-01-28T14:40:08.361Z,100.00
2023-01-28T14:42:50.872Z,100.00
2023-01-28T14:46:00.150Z,100.00
2023-01-28T14:48:51.463Z,100.00
2023-01-28T14:52:12.411Z,100.00
2023-01-28T14:54:58.306Z,100.00
2023-01-28T14:57:46.721Z,100.00
2023-01-28T15:00:34.905Z,100.00
2023-01-28T15:03:24.835Z,100.00
2023-01-28T15:06:18.491Z,100.00
2023-01-28T15:08:45.356Z,99.97
2023-01-28T15:11:18.303Z,99.91
2023-01-28T15:13:49.508Z,100.00
2023-01-28T15:16:21.576Z,100.00
2023-01-28T15:18:50.952Z,98.88
2023-01-28T15:21:23.416Z,98.58
2023-01-28T15:23:55.174Z,98.49
2023-01-28T15:26:31.784Z,98.52
2023-01-28T15:29:00.366Z,97.83
2023-01-28T15:31:34.394Z,97.28
2023-01-28T15:34:19.475Z,96.36
2023-01-28T15:36:47.862Z,95.91
2023-01-28T15:39:20.817Z,96.35
2023-01-28T15:41:56.446Z,96.89
2023-01-28T15:44:37.792Z,97.29
2023-01-28T15:47:33.727Z,97.14
2023-01-28T15:50:05.503Z,95.47
2023-01-28T15:52:37.106Z,96.11
2023-01-28T15:55:06.663Z,95.76
2023-01-28T15:57:35.156Z,95.76
2023-01-28T16:00:12.159Z,95.58
2023-01-28T16:02:54.201Z,95.91
2023-01-28T16:05:36.817Z,94.90
2023-01-28T16:08:17.194Z,95.43
2023-01-28T16:10:56.631Z,95.33
2023-01-28T16:13:31.177Z,94.89
2023-01-28T16:15:59.476Z,95.14
2023-01-28T16:18:51.747Z,96.10
2023-01-28T16:21:29.795Z,94.69
2023-01-28T16:24:06.475Z,95.64
2023-01-28T16:26:35.546Z,95.29
2023-01-28T16:29:16.974Z,96.11
2023-01-28T16:31:43.888Z,95.63
2023-01-28T16:34:11.714Z,94.48
2023-01-28T16:36:38.635Z,94.20
2023-01-28T16:39:05.929Z,93.80
2023-01-28T16:41:47.258Z,93.20
2023-01-28T16:44:14.994Z,93.16
2023-01-28T16:46:42.915Z,92.10
2023-01-28T16:49:10.532Z,92.96
2023-01-28T16:51:41.074Z,92.76
2023-01-28T16:54:11.946Z,91.91
2023-01-28T16:56:46.868Z,91.87
2023-01-28T16:59:15.863Z,92.06
2023-01-28T17:01:46.420Z,90.83
2023-01-28T17:04:13.576Z,91.30
2023-01-28T17:06:43.675Z,91.58
2023-01-28T17:09:12.691Z,91.48
2023-01-28T17:11:40.599Z,90.93
2023-01-28T17:14:08.557Z,90.84
2023-01-28T17:16:35.770Z,90.13
2023-01-28T17:19:02.818Z,90.29
2023-01-28T17:21:29.778Z,90.57
2023-01-28T17:23:58.376Z,90.41
2023-01-28T17:26:26.507Z,89.85
2023-01-28T17:28:53.865Z,89.73
2023-01-28T17:31:21.971Z,89.53
2023-01-28T17:33:57.188Z,89.71
2023-01-28T17:36:26.133Z,89.27
2023-01-28T17:38:53.780Z,89.83
2023-01-28T17:41:21.087Z,88.80
2023-01-28T17:43:56.420Z,89.66
2023-01-28T17:46:25.635Z,88.72
2023-01-28T17:48:53.435Z,89.46
2023-01-28T17:51:20.345Z,88.15
2023-01-28T17:53:49.771Z,87.68
2023-01-28T17:56:26.274Z,87.32
2023-01-28T17:59:03.459Z,87.46
2023-01-28T18:01:31.124Z,87.43
2023-01-28T18:03:59.235Z,88.30
2023-01-28T18:06:35.600Z,87.43
2023-01-28T18:09:03.779Z,87.08
2023-01-28T18:11:32.813Z,86.73
2023-01-28T18:13:59.666Z,88.20
2023-01-28T18:16:26.876Z,87.85
2023-01-28T18:18:53.776Z,88.59
2023-01-28T18:21:51.349Z,87.83
2023-01-28T18:24:19.092Z,88.72
2023-01-28T18:26:46.035Z,88.74
2023-01-28T18:29:16.893Z,88.97
2023-01-28T18:31:44.309Z,88.24
2023-01-28T18:34:11.240Z,88.58
2023-01-28T18:36:38.129Z,87.62
2023-01-28T18:39:04.967Z,88.38
2023-01-28T18:41:31.778Z,88.29
2023-01-28T18:43:58.750Z,87.95
2023-01-28T18:46:25.569Z,87.48
2023-01-28T18:48:52.824Z,88.60
2023-01-28T18:51:29.975Z,88.81
2023-01-28T18:53:59.873Z,89.02
2023-01-28T18:56:28.560Z,88.49
2023-01-28T18:58:57.511Z,88.60
2023-01-28T19:01:24.449Z,89.30
2023-01-28T19:03:51.430Z,89.23
2023-01-28T19:06:18.329Z,89.34
2023-01-28T19:08:45.233Z,89.03
2023-01-28T19:11:13.093Z,90.64
2023-01-28T19:13:39.914Z,91.90
2023-01-28T19:16:06.946Z,92.43
2023-01-28T19:18:33.826Z,91.09
2023-01-28T19:21:07.684Z,90.93
2023-01-28T19:23:49.115Z,92.12
2023-01-28T19:26:21.010Z,92.19
2023-01-28T19:28:49.349Z,92.76
2023-01-28T19:31:18.817Z,93.48
2023-01-28T19:33:46.791Z,93.67
2023-01-28T19:36:14.775Z,93.79
2023-01-28T19:38:42.054Z,94.05
2023-01-28T19:41:09.152Z,93.41
2023-01-28T19:43:36.073Z,93.74
2023-01-28T19:46:05.979Z,94.04
2023-01-28T19:48:33.397Z,93.37
2023-01-28T19:51:08.739Z,94.03
2023-01-28T19:53:36.623Z,94.28
2023-01-28T19:56:06.560Z,93.69
2023-01-28T19:58:35.174Z,94.61
2023-01-28T20:01:20.635Z,94.73
2023-01-28T20:03:52.703Z,95.31
2023-01-28T20:06:19.657Z,93.77
2023-01-28T20:08:56.264Z,93.35
2023-01-28T20:11:23.788Z,93.09
2023-01-28T20:13:52.106Z,93.41
2023-01-28T20:16:25.429Z,93.13
2023-01-28T20:18:55.794Z,92.34
2023-01-28T20:21:23.542Z,92.14
2023-01-28T20:23:53.473Z,91.92
2023-01-28T20:26:24.605Z,91.28
2023-01-28T20:28:51.866Z,91.86
2023-01-28T20:31:20.082Z,91.46
2023-01-28T20:33:47.083Z,91.47
2023-01-28T20:36:14.640Z,91.41
2023-01-28T20:38:46.471Z,91.03
2023-01-28T20:41:20.219Z,91.98
2023-01-28T20:43:48.435Z,91.61
2023-01-28T20:46:22.151Z,92.49
2023-01-28T20:48:49.473Z,92.60
2023-01-28T20:51:23.990Z,94.13
2023-01-28T20:53:51.807Z,93.81
2023-01-28T20:56:22.232Z,94.25
2023-01-28T20:58:55.480Z,94.46
2023-01-28T21:01:26.023Z,93.66
2023-01-28T21:03:52.971Z,93.79
2023-01-28T21:06:20.078Z,93.83
2023-01-28T21:08:46.962Z,94.96
2023-01-28T21:11:14.480Z,94.38
2023-01-28T21:13:41.466Z,94.04
2023-01-28T21:16:08.483Z,93.99
2023-01-28T21:18:35.404Z,94.00
2023-01-28T21:21:09.702Z,93.16
2023-01-28T21:23:36.508Z,93.58
2023-01-28T21:26:05.879Z,93.83
2023-01-28T21:28:33.055Z,94.57
2023-01-28T21:31:16.148Z,94.31
2023-01-28T21:33:43.322Z,95.04
2023-01-28T21:36:13.509Z,94.08
2023-01-28T21:38:40.912Z,95.03
2023-01-28T21:41:09.035Z,94.92
2023-01-28T21:43:35.931Z,94.30
2023-01-28T21:46:03.273Z,94.73
2023-01-28T21:48:30.758Z,94.96
2023-01-28T21:51:24.579Z,94.82
2023-01-28T21:53:51.502Z,94.48
2023-01-28T21:56:18.331Z,94.63
2023-01-28T21:59:03.660Z,93.66
2023-01-28T22:01:30.619Z,94.04
2023-01-28T22:03:57.719Z,94.33
2023-01-28T22:06:24.593Z,95.00
2023-01-28T22:08:54.770Z,94.41
2023-01-28T22:11:21.681Z,95.92
2023-01-28T22:13:48.592Z,95.68
2023-01-28T22:16:16.537Z,94.87
2023-01-28T22:18:43.386Z,95.44
2023-01-28T22:21:12.939Z,94.28
2023-01-28T22:23:40.088Z,95.20
2023-01-28T22:26:07.089Z,95.21
2023-01-28T22:28:33.923Z,94.44
2023-01-28T22:31:13.674Z,94.13
2023-01-28T22:33:41.578Z,93.73
2023-01-28T22:36:13.809Z,94.09
2023-01-28T22:38:43.591Z,94.12
2023-01-28T22:41:19.597Z,94.22
2023-01-28T22:43:46.735Z,93.38
2023-01-28T22:46:14.264Z,92.89
2023-01-28T22:48:41.654Z,93.37
2023-01-28T22:51:17.228Z,93.36
2023-01-28T22:53:45.508Z,92.86
2023-01-28T22:56:13.279Z,92.61
2023-01-28T22:58:40.291Z,92.92
2023-01-28T23:01:07.690Z,91.79
2023-01-28T23:03:35.540Z,91.40
2023-01-28T23:06:05.117Z,91.53
2023-01-28T23:08:33.442Z,90.15
2023-01-28T23:11:02.500Z,90.00
2023-01-28T23:13:53.535Z,90.80
2023-01-28T23:16:38.777Z,91.11
2023-01-28T23:19:24.279Z,91.06
2023-01-28T23:22:09.735Z,91.11
2023-01-28T23:24:36.563Z,90.02
2023-01-28T23:27:03.825Z,89.85
2023-01-28T23:29:31.895Z,89.97
2023-01-28T23:32:07.175Z,90.31
2023-01-28T23:34:37.524Z,89.75
2023-01-28T23:37:08.202Z,90.21
2023-01-28T23:39:35.295Z,90.62
2023-01-28T23:42:23.642Z,89.95
2023-01-28T23:44:50.489Z,89.81
2023-01-28T23:47:18.144Z,90.57
2023-01-28T23:49:45.245Z,90.56
2023-01-28T23:52:12.087Z,89.97
2023-01-28T23:54:38.910Z,91.46
2023-01-28T23:57:05.996Z,91.97
2023-01-28T23:59:32.827Z,91.05
